Time;durP1;ratioP1;P1;durP2;ratioP2;P2;SDS_P1;SDS_P2;PMS_P1;PMS_P2;Temp;Humidity;BMP_temperature;BMP_pressure;BME280_temperature;BME280_humidity;BME280_pressure;Samples;Min_cycle;Max_cycle;Signal;HPM_P1;HPM_P2
2024/01/16 00:01:30;;;;;;;;;;;19.10;54.10;;;;;;7315949;19;9514;-78
2024/01/16 00:04:01;;;;;;;;;;;19.10;54.00;;;;;;7316521;19;9277;-78
2024/01/16 00:06:30;;;;;;;;;;;19.10;54.00;;;;;;7317082;19;9435;-77
2024/01/16 00:08:59;;;;;;;;;;;19.00;54.20;;;;;;7315947;19;9692;-80
2024/01/16 00:11:30;;;;;;;;;;;19.00;54.20;;;;;;7315438;19;9184;-79
2024/01/16 00:13:59;;;;;;;;;;;18.90;54.20;;;;;;7314631;19;9209;-77
2024/01/16 00:16:28;;;;;;;;;;;18.90;54.40;;;;;;7317545;19;9193;-77
2024/01/16 00:18:57;;;;;;;;;;;18.90;54.40;;;;;;7312606;19;9412;-68
2024/01/16 00:21:28;;;;;;;;;;;18.90;54.50;;;;;;7314069;19;9268;-68
2024/01/16 00:23:57;;;;;;;;;;;18.90;54.60;;;;;;7313579;19;9467;-69
2024/01/16 00:26:26;;;;;;;;;;;18.90;54.80;;;;;;7306372;19;9256;-68
2024/01/16 00:29:16;;;;;;;;;;;18.90;54.60;;;;;;7314675;19;9725;-68
2024/01/16 00:31:45;;;;;;;;;;;18.90;54.50;;;;;;7311397;19;9428;-68
2024/01/16 00:34:14;;;;;;;;;;;18.90;54.50;;;;;;7315019;19;9500;-69
2024/01/16 00:36:46;;;;;;;;;;;18.80;54.50;;;;;;7317132;19;9436;-69
2024/01/16 00:39:15;;;;;;;;;;;18.80;54.50;;;;;;7313795;19;9344;-68
2024/01/16 00:42:05;;;;;;;;;;;18.80;54.50;;;;;;7313601;19;9522;-68
2024/01/16 00:44:35;;;;;;;;;;;18.70;54.50;;;;;;7316181;19;11092;-68
2024/01/16 00:47:05;;;;;;;;;;;18.70;54.60;;;;;;7314166;19;9299;-68
2024/01/16 00:49:35;;;;;;;;;;;18.70;54.60;;;;;;7315789;19;9544;-68
2024/01/16 00:52:07;;;;;;;;;;;18.60;54.60;;;;;;7317096;19;10368;-68
2024/01/16 00:54:36;;;;;;;;;;;18.60;54.70;;;;;;7316619;19;9121;-68
2024/01/16 00:57:06;;;;;;;;;;;18.50;54.80;;;;;;7319842;19;9568;-68
2024/01/16 00:59:55;;;;;;;;;;;18.50;54.80;;;;;;7317758;19;10399;-68
2024/01/16 01:02:24;;;;;;;;;;;18.50;54.90;;;;;;7322461;19;9174;-68
2024/01/16 01:04:53;;;;;;;;;;;18.40;55.00;;;;;;7319504;19;9226;-68
2024/01/16 01:07:25;;;;;;;;;;;18.40;55.00;;;;;;7318903;19;9685;-68
2024/01/16 01:09:54;;;;;;;;;;;18.30;55.00;;;;;;7314758;19;9250;-68
2024/01/16 01:12:25;;;;;;;;;;;18.20;55.10;;;;;;7320487;19;9246;-68
2024/01/16 01:14:54;;;;;;;;;;;18.20;55.30;;;;;;7321423;19;9421;-68
2024/01/16 01:17:24;;;;;;;;;;;18.20;55.40;;;;;;7320989;19;9483;-68
2024/01/16 01:19:53;;;;;;;;;;;18.10;55.40;;;;;;7320867;19;9356;-67
2024/01/16 01:22:25;;;;;;;;;;;18.10;55.40;;;;;;7317458;19;9453;-68
2024/01/16 01:25:14;;;;;;;;;;;18.00;55.40;;;;;;7317586;19;9230;-68
2024/01/16 01:27:43;;;;;;;;;;;18.00;55.50;;;;;;7319042;19;9395;-68
2024/01/16 01:30:13;;;;;;;;;;;17.90;55.50;;;;;;7319703;19;9474;-68
2024/01/16 01:32:43;;;;;;;;;;;17.90;55.70;;;;;;7319822;19;9633;-68
2024/01/16 01:35:14;;;;;;;;;;;17.90;55.70;;;;;;7319558;19;9463;-68
2024/01/16 01:37:46;;;;;;;;;;;17.90;55.70;;;;;;7320368;19;10059;-68
2024/01/16 01:40:15;;;;;;;;;;;17.90;55.90;;;;;;7319239;19;9241;-68
2024/01/16 01:42:45;;;;;;;;;;;17.80;55.90;;;;;;7318883;19;10375;-68
2024/01/16 01:45:14;;;;;;;;;;;17.80;55.80;;;;;;7320881;19;9614;-68
2024/01/16 01:47:45;;;;;;;;;;;17.80;55.90;;;;;;7318774;19;9493;-68
2024/01/16 01:50:14;;;;;;;;;;;17.80;55.90;;;;;;7321096;19;10288;-68
2024/01/16 01:52:47;;;;;;;;;;;17.80;56.00;;;;;;7318474;19;9851;-68
2024/01/16 01:55:18;;;;;;;;;;;17.80;56.00;;;;;;7320850;19;9251;-68
2024/01/16 01:57:47;;;;;;;;;;;17.70;56.00;;;;;;7316081;19;9481;-68
2024/01/16 02:00:18;;;;;;;;;;;17.70;56.00;;;;;;7317948;19;9453;-68
2024/01/16 02:02:49;;;;;;;;;;;17.70;56.00;;;;;;7318560;19;9211;-68
2024/01/16 02:05:18;;;;;;;;;;;17.70;55.80;;;;;;7317806;19;9293;-68
2024/01/16 02:08:11;;;;;;;;;;;17.70;55.90;;;;;;7317785;19;9313;-68
2024/01/16 02:11:00;;;;;;;;;;;17.60;55.90;;;;;;7311944;19;9465;-68
2024/01/16 02:13:32;;;;;;;;;;;17.60;55.90;;;;;;7312725;19;9184;-67
2024/01/16 02:16:05;;;;;;;;;;;17.60;55.80;;;;;;7318839;19;9631;-68
2024/01/16 02:18:40;;;;;;;;;;;17.60;55.80;;;;;;7319212;19;9609;-68
2024/01/16 02:21:10;;;;;;;;;;;17.70;56.50;;;;;;7318502;19;9533;-68
2024/01/16 02:23:43;;;;;;;;;;;17.70;55.60;;;;;;7318403;19;9308;-68
2024/01/16 02:26:14;;;;;;;;;;;17.70;55.60;;;;;;7316543;19;9273;-68
2024/01/16 02:28:45;;;;;;;;;;;17.70;56.20;;;;;;7318804;19;9605;-68
2024/01/16 02:31:15;;;;;;;;;;;17.70;55.50;;;;;;7316543;19;9465;-69
2024/01/16 02:33:47;;;;;;;;;;;17.80;55.40;;;;;;7321126;19;9552;-68
2024/01/16 02:36:17;;;;;;;;;;;17.80;55.30;;;;;;7320757;19;8999;-68
2024/01/16 02:38:50;;;;;;;;;;;17.90;55.30;;;;;;7319967;19;9431;-68
2024/01/16 02:41:21;;;;;;;;;;;18.00;55.50;;;;;;7318959;19;9308;-68
2024/01/16 02:43:50;;;;;;;;;;;18.00;55.50;;;;;;7321478;19;9237;-68
2024/01/16 02:46:20;;;;;;;;;;;18.10;55.40;;;;;;7327338;19;9139;-68
2024/01/16 02:48:50;;;;;;;;;;;18.10;55.40;;;;;;7322860;19;9356;-68
2024/01/16 02:51:20;;;;;;;;;;;18.20;55.40;;;;;;7320216;19;9389;-68
2024/01/16 02:53:53;;;;;;;;;;;18.30;56.10;;;;;;7319320;19;9264;-68
2024/01/16 02:56:23;;;;;;;;;;;18.30;55.10;;;;;;7315542;19;11112;-68
2024/01/16 02:58:53;;;;;;;;;;;18.40;55.10;;;;;;7318970;19;9471;-68
2024/01/16 03:01:24;;;;;;;;;;;18.50;55.10;;;;;;7313820;19;9221;-68
2024/01/16 03:03:55;;;;;;;;;;;18.50;55.10;;;;;;7318855;19;9585;-68
2024/01/16 03:06:28;;;;;;;;;;;18.50;55.00;;;;;;7316631;19;9256;-68
2024/01/16 03:09:00;;;;;;;;;;;18.60;55.00;;;;;;7315106;19;9473;-68
2024/01/16 03:11:31;;;;;;;;;;;18.60;54.90;;;;;;7318073;19;9305;-68
2024/01/16 03:14:02;;;;;;;;;;;18.60;54.70;;;;;;7315564;19;9453;-68
2024/01/16 03:16:33;;;;;;;;;;;18.60;54.90;;;;;;7316431;19;9416;-68
2024/01/16 03:19:04;;;;;;;;;;;18.60;54.60;;;;;;7318823;19;9247;-68
2024/01/16 03:21:53;;;;;;;;;;;18.50;54.30;;;;;;7310295;19;9775;-68
2024/01/16 03:24:26;;;;;;;;;;;18.50;54.40;;;;;;7318098;19;9481;-68
2024/01/16 03:26:55;;;;;;;;;;;18.50;54.20;;;;;;7316854;19;9152;-68
2024/01/16 03:29:24;;;;;;;;;;;18.50;54.20;;;;;;7316727;19;9302;-68
2024/01/16 03:31:53;;;;;;;;;;;18.40;54.30;;;;;;7317825;19;9134;-68
2024/01/16 03:34:22;;;;;;;;;;;18.40;54.40;;;;;;7317463;19;9506;-68
2024/01/16 03:36:50;;;;;;;;;;;18.30;54.30;;;;;;7316236;19;9622;-68
2024/01/16 03:39:19;;;;;;;;;;;18.30;54.30;;;;;;7315129;19;9004;-67
2024/01/16 03:42:12;;;;;;;;;;;18.30;54.40;;;;;;7316093;19;9254;-68
2024/01/16 03:44:41;;;;;;;;;;;18.20;54.40;;;;;;7317026;19;9581;-68
2024/01/16 03:47:11;;;;;;;;;;;18.10;54.50;;;;;;7315931;19;9550;-68
2024/01/16 03:49:40;;;;;;;;;;;18.10;54.60;;;;;;7318571;19;9323;-67
2024/01/16 03:52:09;;;;;;;;;;;18.00;54.60;;;;;;7314569;19;9246;-68
2024/01/16 03:54:38;;;;;;;;;;;18.00;54.60;;;;;;7313010;19;9468;-68
2024/01/16 03:57:07;;;;;;;;;;;18.00;54.90;;;;;;7318083;19;9181;-68
2024/01/16 03:59:39;;;;;;;;;;;17.90;54.90;;;;;;7315938;19;9693;-68
2024/01/16 04:02:08;;;;;;;;;;;17.90;54.90;;;;;;7316589;19;9601;-68
2024/01/16 04:04:37;;;;;;;;;;;17.90;55.10;;;;;;7318641;19;9167;-68
2024/01/16 04:07:06;;;;;;;;;;;17.80;55.00;;;;;;7313591;19;9410;-67
2024/01/16 04:09:35;;;;;;;;;;;17.80;55.10;;;;;;7316248;19;10700;-67
2024/01/16 04:12:05;;;;;;;;;;;17.70;55.10;;;;;;7311977;19;9519;-67
2024/01/16 04:14:36;;;;;;;;;;;17.70;55.20;;;;;;7314022;19;9463;-68
2024/01/16 04:17:27;;;;;;;;;;;17.70;55.20;;;;;;7313123;19;9232;-68
2024/01/16 04:19:56;;;;;;;;;;;17.70;55.10;;;;;;7313606;19;11214;-68
2024/01/16 04:22:25;;;;;;;;;;;17.70;55.80;;;;;;7314395;19;9297;-68
2024/01/16 04:24:55;;;;;;;;;;;17.70;55.10;;;;;;7314764;19;9471;-68
2024/01/16 04:27:23;;;;;;;;;;;17.80;55.00;;;;;;7315219;19;9396;-68
2024/01/16 04:30:13;;;;;;;;;;;17.80;55.00;;;;;;7313601;19;9366;-68
2024/01/16 04:32:44;;;;;;;;;;;17.80;54.90;;;;;;7314901;19;9576;-69
2024/01/16 04:35:14;;;;;;;;;;;17.90;54.80;;;;;;7313620;19;9232;-68
2024/01/16 04:37:43;;;;;;;;;;;17.90;54.80;;;;;;7313782;19;9541;-68
2024/01/16 04:40:13;;;;;;;;;;;17.90;54.80;;;;;;7313620;19;9262;-68
2024/01/16 04:43:02;;;;;;;;;;;17.90;54.70;;;;;;7311707;19;9269;-68
2024/01/16 04:45:31;;;;;;;;;;;17.90;54.70;;;;;;7313794;19;9246;-68
2024/01/16 04:48:02;;;;;;;;;;;17.90;55.00;;;;;;7311928;19;10733;-68
2024/01/16 04:50:33;;;;;;;;;;;18.00;55.00;;;;;;7312401;19;9193;-68
2024/01/16 04:53:03;;;;;;;;;;;18.10;54.90;;;;;;7314857;19;9523;-68
2024/01/16 04:55:32;;;;;;;;;;;18.10;55.10;;;;;;7316352;19;9279;-69
2024/01/16 04:58:01;;;;;;;;;;;18.20;55.10;;;;;;7314040;19;9418;-68
2024/01/16 05:00:30;;;;;;;;;;;18.20;55.00;;;;;;7312722;19;9365;-68
2024/01/16 05:03:02;;;;;;;;;;;18.30;54.80;;;;;;7312357;19;10193;-68
2024/01/16 05:05:31;;;;;;;;;;;18.30;54.90;;;;;;7314203;19;9230;-68
2024/01/16 05:08:00;;;;;;;;;;;18.40;54.80;;;;;;7313414;19;9984;-68
2024/01/16 05:10:29;;;;;;;;;;;18.40;54.70;;;;;;7312415;19;9526;-68
2024/01/16 05:12:57;;;;;;;;;;;18.50;54.70;;;;;;7312237;19;9487;-68
2024/01/16 05:15:27;;;;;;;;;;;18.50;54.60;;;;;;7311741;19;9328;-68
2024/01/16 05:17:56;;;;;;;;;;;18.50;54.60;;;;;;7314112;19;9517;-68
2024/01/16 05:20:29;;;;;;;;;;;18.50;54.60;;;;;;7312317;19;9484;-68
2024/01/16 05:22:57;;;;;;;;;;;18.50;54.50;;;;;;7310375;19;9454;-68
2024/01/16 05:25:26;;;;;;;;;;;18.50;54.60;;;;;;7314213;19;9257;-68
2024/01/16 05:27:55;;;;;;;;;;;18.50;54.20;;;;;;7314003;19;9203;-68
2024/01/16 05:30:24;;;;;;;;;;;18.50;54.50;;;;;;7314355;19;9485;-68
2024/01/16 05:32:53;;;;;;;;;;;18.50;54.10;;;;;;7311403;19;9125;-68
2024/01/16 05:35:22;;;;;;;;;;;18.50;54.00;;;;;;7312699;19;9308;-68
2024/01/16 05:38:14;;;;;;;;;;;18.40;53.90;;;;;;7310997;19;10899;-68
2024/01/16 05:40:43;;;;;;;;;;;18.40;53.90;;;;;;7314114;19;9424;-68
2024/01/16 05:43:12;;;;;;;;;;;18.40;54.00;;;;;;7315803;19;9254;-68
2024/01/16 05:45:41;;;;;;;;;;;18.40;54.10;;;;;;7319482;19;9230;-68
2024/01/16 05:48:10;;;;;;;;;;;18.30;54.00;;;;;;7319737;19;9242;-68
2024/01/16 05:50:39;;;;;;;;;;;18.30;54.80;;;;;;7318581;19;9261;-68
2024/01/16 05:53:08;;;;;;;;;;;18.20;54.10;;;;;;7318511;19;9135;-68
2024/01/16 05:55:40;;;;;;;;;;;18.20;54.20;;;;;;7320805;19;9229;-68
2024/01/16 05:58:09;;;;;;;;;;;18.20;54.30;;;;;;7320779;19;9538;-68
2024/01/16 06:00:39;;;;;;;;;;;18.10;54.30;;;;;;7315934;19;9253;-68
2024/01/16 06:03:08;;;;;;;;;;;18.00;54.30;;;;;;7321838;19;9491;-68
2024/01/16 06:05:37;;;;;;;;;;;18.00;54.30;;;;;;7317323;19;9341;-68
2024/01/16 06:08:06;;;;;;;;;;;17.90;54.40;;;;;;7319624;19;10970;-68
2024/01/16 06:10:35;;;;;;;;;;;17.90;54.50;;;;;;7318064;19;9158;-68
2024/01/16 06:13:07;;;;;;;;;;;17.80;54.60;;;;;;7321400;19;9205;-68
2024/01/16 06:15:36;;;;;;;;;;;17.80;54.60;;;;;;7315298;19;10068;-68
2024/01/16 06:18:06;;;;;;;;;;;17.80;54.70;;;;;;7320849;19;9309;-68
2024/01/16 06:20:35;;;;;;;;;;;17.80;54.60;;;;;;7316242;19;9394;-68
2024/01/16 06:23:04;;;;;;;;;;;17.80;54.50;;;;;;7312715;19;9354;-68
2024/01/16 06:25:33;;;;;;;;;;;17.80;54.60;;;;;;7316802;19;10384;-68
2024/01/16 06:28:03;;;;;;;;;;;17.80;54.60;;;;;;7317001;19;9617;-68
2024/01/16 06:30:34;;;;;;;;;;;17.80;54.50;;;;;;7320187;19;9591;-68
2024/01/16 06:33:03;;;;;;;;;;;17.90;54.50;;;;;;7318858;19;9364;-69
2024/01/16 06:35:32;;;;;;;;;;;17.90;54.50;;;;;;7316175;19;9453;-68
2024/01/16 06:38:21;;;;;;;;;;;17.90;54.70;;;;;;7316160;19;9700;-68
2024/01/16 06:40:50;;;;;;;;;;;18.00;54.80;;;;;;7318387;19;9650;-68
2024/01/16 06:43:19;;;;;;;;;;;18.00;54.70;;;;;;7311385;19;9473;-69
2024/01/16 06:45:50;;;;;;;;;;;18.10;54.40;;;;;;7316036;19;9230;-68
2024/01/16 06:48:19;;;;;;;;;;;18.10;54.80;;;;;;7319016;19;9452;-68
2024/01/16 06:50:48;;;;;;;;;;;18.10;54.20;;;;;;7316134;19;9318;-68
2024/01/16 06:53:17;;;;;;;;;;;18.10;54.10;;;;;;7318873;19;10407;-68
2024/01/16 06:55:46;;;;;;;;;;;18.10;54.30;;;;;;7316687;19;9243;-68
2024/01/16 06:58:35;;;;;;;;;;;18.20;54.50;;;;;;7315835;19;9686;-69
2024/01/16 07:01:08;;;;;;;;;;;18.10;54.50;;;;;;7315712;19;10446;-69
2024/01/16 07:03:37;;;;;;;;;;;18.20;54.40;;;;;;7317433;19;9573;-68
2024/01/16 07:06:06;;;;;;;;;;;18.30;54.50;;;;;;7315506;19;12053;-68
2024/01/16 07:08:35;;;;;;;;;;;18.30;54.50;;;;;;7313232;19;9135;-68
2024/01/16 07:11:07;;;;;;;;;;;18.30;54.40;;;;;;7317295;19;9475;-68
2024/01/16 07:13:36;;;;;;;;;;;18.40;54.50;;;;;;7315754;19;9584;-68
2024/01/16 07:16:09;;;;;;;;;;;18.40;54.50;;;;;;7318077;19;9311;-68
2024/01/16 07:18:38;;;;;;;;;;;18.50;54.40;;;;;;7318669;19;9504;-68
2024/01/16 07:21:07;;;;;;;;;;;18.50;54.30;;;;;;7317779;19;9321;-68
2024/01/16 07:23:36;;;;;;;;;;;18.50;54.10;;;;;;7314281;19;9213;-68
2024/01/16 07:26:26;;;;;;;;;;;18.50;54.20;;;;;;7314421;19;9393;-69
2024/01/16 07:28:54;;;;;;;;;;;18.50;54.30;;;;;;7317508;19;9156;-68
2024/01/16 07:31:26;;;;;;;;;;;18.50;54.20;;;;;;7313274;19;11525;-68
2024/01/16 07:33:55;;;;;;;;;;;18.50;54.20;;;;;;7317428;19;9128;-69
2024/01/16 07:36:24;;;;;;;;;;;18.50;54.00;;;;;;7315801;19;9238;-68
2024/01/16 07:38:53;;;;;;;;;;;18.50;53.70;;;;;;7315728;19;9146;-68
2024/01/16 07:41:22;;;;;;;;;;;18.50;53.60;;;;;;7316363;19;9647;-68
2024/01/16 07:43:51;;;;;;;;;;;18.50;53.60;;;;;;7317339;19;9456;-68
2024/01/16 07:46:20;;;;;;;;;;;18.40;53.50;;;;;;7316815;19;9659;-69
2024/01/16 07:48:52;;;;;;;;;;;18.40;53.50;;;;;;7314961;19;9505;-69
2024/01/16 07:51:41;;;;;;;;;;;18.30;53.50;;;;;;7313295;19;9740;-68
2024/01/16 07:54:13;;;;;;;;;;;18.30;53.60;;;;;;7315888;19;9780;-68
2024/01/16 07:56:42;;;;;;;;;;;18.30;53.60;;;;;;7315816;19;9483;-68
2024/01/16 07:59:10;;;;;;;;;;;18.20;53.60;;;;;;7318768;19;9249;-68
2024/01/16 08:01:40;;;;;;;;;;;18.20;53.80;;;;;;7314685;19;10650;-68
2024/01/16 08:04:31;;;;;;;;;;;18.10;53.70;;;;;;7315009;19;9355;-68
2024/01/16 08:07:00;;;;;;;;;;;18.10;53.90;;;;;;7315273;19;9238;-68
2024/01/16 08:09:29;;;;;;;;;;;18.00;53.90;;;;;;7316888;19;9316;-68
2024/01/16 08:11:58;;;;;;;;;;;18.00;54.00;;;;;;7316164;19;9467;-68
2024/01/16 08:14:28;;;;;;;;;;;17.90;54.00;;;;;;7316310;19;9467;-68
2024/01/16 08:16:58;;;;;;;;;;;17.90;54.00;;;;;;7316109;19;9300;-69
2024/01/16 08:19:27;;;;;;;;;;;17.90;54.10;;;;;;7316821;19;10317;-69
2024/01/16 08:21:58;;;;;;;;;;;17.90;54.20;;;;;;7315444;19;9370;-68
2024/01/16 08:24:27;;;;;;;;;;;17.80;54.20;;;;;;7315725;19;9573;-68
2024/01/16 08:26:57;;;;;;;;;;;17.80;54.10;;;;;;7312150;19;9860;-68
2024/01/16 08:29:26;;;;;;;;;;;17.80;54.10;;;;;;7316481;19;9132;-68
2024/01/16 08:31:55;;;;;;;;;;;17.90;54.10;;;;;;7315920;19;9232;-68
2024/01/16 08:34:24;;;;;;;;;;;17.90;54.10;;;;;;7312027;19;9183;-69
2024/01/16 08:36:56;;;;;;;;;;;17.90;54.00;;;;;;7313801;19;9252;-69
2024/01/16 08:39:28;;;;;;;;;;;17.90;53.90;;;;;;7314631;19;9498;-68
2024/01/16 08:41:57;;;;;;;;;;;17.90;53.90;;;;;;7316629;19;9225;-68
2024/01/16 08:44:26;;;;;;;;;;;17.90;53.90;;;;;;7315822;19;9469;-68
2024/01/16 08:46:55;;;;;;;;;;;17.90;53.90;;;;;;7316086;19;9434;-69
2024/01/16 08:49:24;;;;;;;;;;;17.90;53.90;;;;;;7315404;19;9289;-69
2024/01/16 08:51:53;;;;;;;;;;;18.00;54.40;;;;;;7315153;19;9334;-68
2024/01/16 08:54:22;;;;;;;;;;;18.00;54.40;;;;;;7316951;19;9237;-69
2024/01/16 08:56:54;;;;;;;;;;;18.10;54.40;;;;;;7315489;19;10152;-69
2024/01/16 08:59:23;;;;;;;;;;;18.20;54.40;;;;;;7314106;19;9360;-69
2024/01/16 09:01:52;;;;;;;;;;;18.20;54.40;;;;;;7314803;19;10112;-68
2024/01/16 09:04:20;;;;;;;;;;;18.20;54.30;;;;;;7315621;19;9259;-68
2024/01/16 09:06:49;;;;;;;;;;;18.30;54.20;;;;;;7316989;19;9782;-69
2024/01/16 09:09:19;;;;;;;;;;;18.40;54.10;;;;;;7315045;19;9573;-69
2024/01/16 09:11:48;;;;;;;;;;;18.40;54.20;;;;;;7315656;19;9505;-69
2024/01/16 09:14:20;;;;;;;;;;;18.50;54.20;;;;;;7313585;19;9277;-69
2024/01/16 09:16:49;;;;;;;;;;;18.50;54.80;;;;;;7322445;19;10162;-68
2024/01/16 09:19:18;;;;;;;;;;;18.50;54.10;;;;;;7321584;19;9304;-68
2024/01/16 09:21:47;;;;;;;;;;;18.50;54.10;;;;;;7318770;19;9984;-69
2024/01/16 09:24:16;;;;;;;;;;;18.60;54.10;;;;;;7324143;19;9575;-69
2024/01/16 09:26:45;;;;;;;;;;;18.50;54.00;;;;;;7318215;19;10792;-69
2024/01/16 09:29:14;;;;;;;;;;;18.60;54.10;;;;;;7320925;19;9176;-68
2024/01/16 09:31:45;;;;;;;;;;;18.50;53.90;;;;;;7321865;19;9315;-68
2024/01/16 09:34:17;;;;;;;;;;;18.60;53.90;;;;;;7322281;19;9259;-67
2024/01/16 09:36:46;;;;;;;;;;;18.50;53.80;;;;;;7313782;19;9129;-67
2024/01/16 09:39:16;;;;;;;;;;;18.60;54.00;;;;;;7319165;19;10219;-68
2024/01/16 09:41:45;;;;;;;;;;;18.50;54.00;;;;;;7316952;19;9375;-67
2024/01/16 09:44:14;;;;;;;;;;;18.50;54.20;;;;;;7320202;19;10355;-68
2024/01/16 09:46:49;;;;;;;;;;;18.50;54.30;;;;;;7322299;19;9228;-68
2024/01/16 09:49:20;;;;;;;;;;;18.50;54.30;;;;;;7323135;19;9549;-68
2024/01/16 09:51:49;;;;;;;;;;;18.40;54.30;;;;;;7318145;19;9585;-67
2024/01/16 09:54:18;;;;;;;;;;;18.50;54.20;;;;;;7316512;19;9278;-67
2024/01/16 09:57:10;;;;;;;;;;;18.50;54.30;;;;;;7317802;19;9289;-67
2024/01/16 09:59:42;;;;;;;;;;;18.50;54.40;;;;;;7316309;19;9209;-68
2024/01/16 10:02:17;;;;;;;;;;;18.50;54.40;;;;;;7321167;19;9567;-68
2024/01/16 10:04:46;;;;;;;;;;;18.50;54.30;;;;;;7317500;19;9245;-68
2024/01/16 10:07:18;;;;;;;;;;;18.50;54.40;;;;;;7318603;19;9550;-67
2024/01/16 10:09:47;;;;;;;;;;;18.60;54.50;;;;;;7316937;19;9236;-67
2024/01/16 10:12:17;;;;;;;;;;;18.60;54.30;;;;;;7316846;19;10308;-67
2024/01/16 10:14:47;;;;;;;;;;;18.60;54.30;;;;;;7315760;19;9281;-68
2024/01/16 10:17:19;;;;;;;;;;;18.60;54.30;;;;;;7322169;19;9288;-68
2024/01/16 10:19:54;;;;;;;;;;;18.60;54.20;;;;;;7315238;19;9361;-67
2024/01/16 10:22:25;;;;;;;;;;;18.60;54.30;;;;;;7318274;19;9441;-67
2024/01/16 10:25:08;;;;;;;;;;;18.60;54.20;;;;;;7318702;19;9497;-68
2024/01/16 10:27:38;;;;;;;;;;;18.60;54.30;;;;;;7318331;19;9465;-68
2024/01/16 10:30:08;;;;;;;;;;;18.60;54.20;;;;;;7316137;19;9530;-67
2024/01/16 10:32:41;;;;;;;;;;;18.60;54.20;;;;;;7312871;19;9442;-68
2024/01/16 10:35:12;;;;;;;;;;;18.70;54.20;;;;;;7321304;19;9304;-67
2024/01/16 10:37:48;;;;;;;;;;;18.80;54.40;;;;;;7319399;19;9344;-71
2024/01/16 10:40:19;;;;;;;;;;;18.80;54.40;;;;;;7310378;19;9566;-70
2024/01/16 10:42:49;;;;;;;;;;;18.80;54.50;;;;;;7319256;19;9529;-71
2024/01/16 10:45:22;;;;;;;;;;;18.90;54.50;;;;;;7316582;19;9256;-74
2024/01/16 10:48:04;;;;;;;;;;;18.90;54.50;;;;;;7318450;19;9185;-73
2024/01/16 10:50:33;;;;;;;;;;;18.90;54.50;;;;;;7188590;19;13790;-67
2024/01/16 10:53:05;;;;;;;;;;;19.00;54.60;;;;;;7321836;19;9485;-76
2024/01/16 10:55:38;;;;;;;;;;;19.00;54.50;;;;;;7312710;19;9224;-74
2024/01/16 10:58:09;;;;;;;;;;;19.00;54.50;;;;;;7318531;19;9270;-75
2024/01/16 11:00:45;;;;;;;;;;;19.10;54.50;;;;;;7311920;19;9243;-74
2024/01/16 11:03:24;;;;;;;;;;;19.10;54.50;;;;;;7317997;19;9246;-74
2024/01/16 11:05:55;;;;;;;;;;;19.10;54.50;;;;;;7318618;19;11360;-74
2024/01/16 11:08:30;;;;;;;;;;;19.20;54.60;;;;;;7316009;19;9244;-75
2024/01/16 11:11:03;;;;;;;;;;;19.20;54.50;;;;;;7319445;19;9533;-75
2024/01/16 11:13:36;;;;;;;;;;;19.30;54.60;;;;;;7318288;19;11180;-74
2024/01/16 11:16:07;;;;;;;;;;;19.30;54.60;;;;;;7320400;19;9538;-75
2024/01/16 11:18:39;;;;;;;;;;;19.30;54.60;;;;;;7321765;19;9841;-74
2024/01/16 11:21:12;;;;;;;;;;;19.30;54.50;;;;;;7321311;19;9441;-74
2024/01/16 11:23:41;;;;;;;;;;;19.30;54.60;;;;;;7320019;19;9504;-75
2024/01/16 11:26:31;;;;;;;;;;;19.40;55.30;;;;;;7319100;19;9323;-75
2024/01/16 11:29:00;;;;;;;;;;;19.40;54.70;;;;;;7318733;19;9518;-76
2024/01/16 11:31:34;;;;;;;;;;;19.40;54.70;;;;;;7315356;19;9253;-77
2024/01/16 11:34:06;;;;;;;;;;;19.40;54.80;;;;;;7317650;19;9251;-76
2024/01/16 11:36:54;;;;;;;;;;;19.40;54.80;;;;;;7318678;19;9416;-77
2024/01/16 11:39:24;;;;;;;;;;;19.40;54.80;;;;;;7315249;19;9275;-76
2024/01/16 11:41:58;;;;;;;;;;;19.40;54.90;;;;;;7315905;19;9519;-80
2024/01/16 11:44:38;;;;;;;;;;;19.40;54.90;;;;;;7320087;19;9289;-77
2024/01/16 11:47:08;;;;;;;;;;;19.40;55.00;;;;;;7317182;19;11414;-75
2024/01/16 11:49:40;;;;;;;;;;;19.40;54.90;;;;;;7318572;19;9273;-74
2024/01/16 11:52:11;;;;;;;;;;;19.40;54.80;;;;;;7317544;19;9116;-74
2024/01/16 11:54:40;;;;;;;;;;;19.50;54.90;;;;;;7318236;19;9295;-74
2024/01/16 11:57:47;;;;;;;;;;;19.50;54.90;;;;;;7319520;19;9306;-75
2024/01/16 12:00:21;;;;;;;;;;;19.50;54.80;;;;;;7315162;19;9522;-75
2024/01/16 12:02:56;;;;;;;;;;;19.50;54.80;;;;;;7276717;19;9332;-67
2024/01/16 12:05:30;;;;;;;;;;;19.60;54.80;;;;;;7317611;19;9368;-79
2024/01/16 12:07:59;;;;;;;;;;;19.60;54.80;;;;;;7313820;19;9233;-76
2024/01/16 12:10:28;;;;;;;;;;;19.60;54.90;;;;;;7314838;19;9384;-78
2024/01/16 12:13:02;;;;;;;;;;;19.60;54.90;;;;;;7319459;19;8956;-77
2024/01/16 12:15:31;;;;;;;;;;;19.50;54.90;;;;;;7316359;19;9257;-77
2024/01/16 12:18:02;;;;;;;;;;;19.50;54.80;;;;;;7314432;19;9574;-76
2024/01/16 12:20:35;;;;;;;;;;;19.50;54.90;;;;;;7316088;19;9474;-77
2024/01/16 12:23:07;;;;;;;;;;;19.50;54.90;;;;;;7315399;19;9863;-76
2024/01/16 12:25:37;;;;;;;;;;;19.40;54.90;;;;;;7311605;19;9289;-78
2024/01/16 12:28:10;;;;;;;;;;;19.40;54.90;;;;;;7317001;19;10473;-77
2024/01/16 12:30:40;;;;;;;;;;;19.40;55.10;;;;;;7318950;19;9183;-76
2024/01/16 12:33:10;;;;;;;;;;;19.40;54.90;;;;;;7311711;19;9395;-77
2024/01/16 12:35:44;;;;;;;;;;;19.30;54.90;;;;;;7315714;19;10134;-76
2024/01/16 12:38:15;;;;;;;;;;;19.30;55.00;;;;;;7312437;19;9304;-81
2024/01/16 12:40:49;;;;;;;;;;;19.30;55.00;;;;;;7313270;19;9518;-81
2024/01/16 12:43:20;;;;;;;;;;;19.20;55.00;;;;;;7315469;19;9297;-80
2024/01/16 12:46:09;;;;;;;;;;;19.10;55.00;;;;;;7311693;19;9645;-67
2024/01/16 12:48:39;;;;;;;;;;;19.10;55.00;;;;;;7315573;19;9457;-76
2024/01/16 12:51:12;;;;;;;;;;;19.10;55.10;;;;;;7318331;19;9491;-76
2024/01/16 12:53:41;;;;;;;;;;;19.10;55.10;;;;;;7328800;19;9285;-79
2024/01/16 12:56:11;;;;;;;;;;;19.10;55.20;;;;;;7329033;19;9298;-78
2024/01/16 12:58:40;;;;;;;;;;;19.10;55.40;;;;;;7321313;19;9503;-76
2024/01/16 13:01:25;;;;;;;;;;;19.10;55.30;;;;;;7322794;19;9491;-76
2024/01/16 13:03:55;;;;;;;;;;;19.10;55.40;;;;;;7317825;19;9257;-76
2024/01/16 13:06:27;;;;;;;;;;;19.10;55.30;;;;;;7299137;19;10186;-68
2024/01/16 13:09:10;;;;;;;;;;;19.10;55.40;;;;;;7316458;19;9281;-73
2024/01/16 13:11:49;;;;;;;;;;;19.10;55.20;;;;;;7320726;19;9650;-80
2024/01/16 13:14:18;;;;;;;;;;;19.10;55.40;;;;;;7319213;19;9253;-79
2024/01/16 13:16:47;;;;;;;;;;;19.10;55.40;;;;;;7314637;19;10846;-80
2024/01/16 13:19:19;;;;;;;;;;;19.20;55.50;;;;;;7321278;19;9284;-86
2024/01/16 13:21:52;;;;;;;;;;;19.20;55.40;;;;;;7324575;19;9392;-69
2024/01/16 13:24:23;;;;;;;;;;;19.20;55.50;;;;;;7323582;19;9400;-71
2024/01/16 13:26:52;;;;;;;;;;;19.30;55.50;;;;;;7319017;19;9278;-67
2024/01/16 13:29:21;;;;;;;;;;;19.30;55.40;;;;;;7322502;19;9309;-78
2024/01/16 13:31:54;;;;;;;;;;;19.30;55.40;;;;;;7318733;19;9473;-68
2024/01/16 13:34:23;;;;;;;;;;;19.40;55.40;;;;;;7321182;19;9252;-68
2024/01/16 13:36:59;;;;;;;;;;;19.40;55.40;;;;;;7308522;19;9274;-68
2024/01/16 13:39:28;;;;;;;;;;;19.50;55.40;;;;;;7315185;19;9273;-68
2024/01/16 13:41:57;;;;;;;;;;;19.50;55.30;;;;;;7305213;19;9270;-75
2024/01/16 13:44:27;;;;;;;;;;;19.50;55.30;;;;;;7318443;19;10423;-84
2024/01/16 13:47:19;;;;;;;;;;;19.50;55.30;;;;;;7319055;19;10430;-84
2024/01/16 13:49:48;;;;;;;;;;;19.50;55.30;;;;;;7321921;19;9444;-84
2024/01/16 13:52:20;;;;;;;;;;;19.50;55.40;;;;;;7323061;19;9213;-80
2024/01/16 13:55:09;;;;;;;;;;;19.50;55.40;;;;;;7320667;19;9350;-80
2024/01/16 13:57:38;;;;;;;;;;;19.50;55.40;;;;;;7323238;19;9273;-80
2024/01/16 14:00:13;;;;;;;;;;;19.50;55.40;;;;;;7322028;19;11552;-80
2024/01/16 14:02:42;;;;;;;;;;;19.50;55.30;;;;;;7318832;19;9206;-67
2024/01/16 14:05:12;;;;;;;;;;;19.50;55.40;;;;;;7320545;19;10386;-67
2024/01/16 14:07:45;;;;;;;;;;;19.50;55.40;;;;;;7319677;19;9494;-67
2024/01/16 14:10:16;;;;;;;;;;;19.50;55.50;;;;;;7318407;19;9468;-67
2024/01/16 14:12:46;;;;;;;;;;;19.50;55.40;;;;;;7319776;19;11286;-67
2024/01/16 14:15:19;;;;;;;;;;;19.50;55.40;;;;;;7320248;19;9261;-67
2024/01/16 14:17:50;;;;;;;;;;;19.50;55.40;;;;;;7322053;19;9238;-67
2024/01/16 14:20:22;;;;;;;;;;;19.40;55.40;;;;;;7318058;19;9246;-75
2024/01/16 14:22:54;;;;;;;;;;;19.40;55.40;;;;;;7319594;19;9537;-74
2024/01/16 14:25:24;;;;;;;;;;;19.30;55.50;;;;;;7321742;19;9278;-74
2024/01/16 14:28:03;;;;;;;;;;;19.30;55.50;;;;;;7320559;19;9542;-74
2024/01/16 14:30:33;;;;;;;;;;;19.30;55.60;;;;;;7320802;19;9272;-74
2024/01/16 14:33:02;;;;;;;;;;;19.20;55.70;;;;;;7315563;19;9271;-75
2024/01/16 14:35:31;;;;;;;;;;;19.20;55.70;;;;;;7313730;19;9751;-74
2024/01/16 14:38:03;;;;;;;;;;;19.10;55.70;;;;;;7311244;19;9471;-74
2024/01/16 14:40:55;;;;;;;;;;;19.10;55.70;;;;;;7312660;19;10460;-74
2024/01/16 14:43:25;;;;;;;;;;;19.10;55.70;;;;;;7321529;19;9460;-74
2024/01/16 14:45:54;;;;;;;;;;;19.10;55.70;;;;;;7316320;19;9545;-74
2024/01/16 14:48:23;;;;;;;;;;;19.10;55.70;;;;;;7320931;19;9251;-74
2024/01/16 14:50:52;;;;;;;;;;;19.10;55.90;;;;;;7315750;19;10314;-74
2024/01/16 14:53:24;;;;;;;;;;;19.10;55.80;;;;;;7313724;19;9397;-74
2024/01/16 14:55:53;;;;;;;;;;;19.10;55.70;;;;;;7313539;19;11424;-74